Time;durP1;ratioP1;P1;durP2;ratioP2;P2;SDS_P1;SDS_P2;PMS_P1;PMS_P2;Temp;Humidity;BMP_temperature;BMP_pressure;BME280_temperature;BME280_humidity;BME280_pressure;Samples;Min_cycle;Max_cycle;Signal;HPM_P1;HPM_P2
2023/10/15 00:00:00;;;;;;;;;;;22.40;53.70;;;;;;1554274;75;666;-59
2023/10/15 00:02:03;;;;;;;;;;;22.50;53.90;;;;;;1553791;75;1965;-59
2023/10/15 00:04:08;;;;;;;;;;;22.30;53.70;;;;;;1551510;75;644;-59
2023/10/15 00:06:09;;;;;;;;;;;22.40;53.70;;;;;;1535704;75;1661;-59
2023/10/15 00:08:11;;;;;;;;;;;22.50;53.80;;;;;;1552125;75;765;-61
2023/10/15 00:10:14;;;;;;;;;;;22.40;53.70;;;;;;1548680;75;1181;-61
2023/10/15 00:12:16;;;;;;;;;;;22.40;53.70;;;;;;1558040;75;711;-61
2023/10/15 00:14:18;;;;;;;;;;;22.40;53.70;;;;;;1555000;75;726;-60
2023/10/15 00:16:20;;;;;;;;;;;22.50;53.80;;;;;;1553083;75;720;-61
2023/10/15 00:18:22;;;;;;;;;;;22.50;53.80;;;;;;1545839;75;1919;-61
2023/10/15 00:20:28;;;;;;;;;;;22.50;53.80;;;;;;1550969;75;1235;-61
2023/10/15 00:22:28;;;;;;;;;;;22.40;53.60;;;;;;1551739;75;1728;-61
2023/10/15 00:24:30;;;;;;;;;;;22.40;53.70;;;;;;1540983;75;708;-62
2023/10/15 00:26:32;;;;;;;;;;;22.40;53.70;;;;;;1551770;75;796;-61
2023/10/15 00:28:34;;;;;;;;;;;22.50;53.80;;;;;;1540717;75;727;-61
2023/10/15 00:30:37;;;;;;;;;;;22.40;53.70;;;;;;1552799;75;1157;-61
2023/10/15 00:32:45;;;;;;;;;;;22.40;53.70;;;;;;1551345;75;1290;-61
2023/10/15 00:34:49;;;;;;;;;;;22.40;53.70;;;;;;1543957;75;688;-60
2023/10/15 00:36:50;;;;;;;;;;;22.40;53.70;;;;;;1553149;75;1660;-61
2023/10/15 00:38:52;;;;;;;;;;;22.50;53.80;;;;;;1540278;75;1939;-61
2023/10/15 00:41:07;;;;;;;;;;;22.40;53.60;;;;;;1546248;75;1176;-61
2023/10/15 00:43:00;;;;;;;;;;;22.40;53.60;;;;;;1551400;75;1584;-61
2023/10/15 00:45:03;;;;;;;;;;;22.50;53.80;;;;;;1545987;75;769;-61
2023/10/15 00:47:05;;;;;;;;;;;22.40;53.60;;;;;;1550468;75;1397;-61
2023/10/15 00:49:13;;;;;;;;;;;22.40;53.60;;;;;;1553032;75;769;-61
2023/10/15 00:51:14;;;;;;;;;;;22.40;53.60;;;;;;1550431;75;1668;-61
2023/10/15 00:53:24;;;;;;;;;;;22.40;53.70;;;;;;1554146;75;694;-61
2023/10/15 00:55:28;;;;;;;;;;;22.40;53.60;;;;;;1552211;75;657;-61
2023/10/15 00:57:41;;;;;;;;;;;22.50;53.80;;;;;;1557838;75;683;-61
2023/10/15 00:59:45;;;;;;;;;;;22.50;53.80;;;;;;1552449;75;1939;-61
2023/10/15 01:01:42;;;;;;;;;;;22.40;53.60;;;;;;1539125;75;1741;-61
2023/10/15 01:03:49;;;;;;;;;;;22.50;53.70;;;;;;1543079;75;1651;-61
2023/10/15 01:05:54;;;;;;;;;;;22.40;53.60;;;;;;1555867;75;570;-61
2023/10/15 01:07:57;;;;;;;;;;;22.30;53.60;;;;;;1556081;75;703;-61
2023/10/15 01:09:59;;;;;;;;;;;22.40;53.60;;;;;;1542229;75;785;-61
2023/10/15 01:12:19;;;;;;;;;;;22.40;53.60;;;;;;1552356;75;1155;-61
2023/10/15 01:14:10;;;;;;;;;;;22.50;53.70;;;;;;1549058;75;1757;-61
2023/10/15 01:16:10;;;;;;;;;;;22.40;53.60;;;;;;1554235;75;1591;-61
2023/10/15 01:18:12;;;;;;;;;;;22.40;53.60;;;;;;1542469;75;657;-62
2023/10/15 01:20:18;;;;;;;;;;;22.40;53.60;;;;;;1545020;75;1915;-61
2023/10/15 01:22:18;;;;;;;;;;;22.40;53.60;;;;;;1537376;75;1572;-61
2023/10/15 01:24:22;;;;;;;;;;;22.40;53.60;;;;;;1549750;75;808;-61
2023/10/15 01:26:25;;;;;;;;;;;22.40;53.60;;;;;;1550292;75;1692;-61
2023/10/15 01:28:36;;;;;;;;;;;22.40;53.60;;;;;;1554056;75;657;-61
2023/10/15 01:30:41;;;;;;;;;;;22.40;53.60;;;;;;1544674;75;1731;-61
2023/10/15 01:32:44;;;;;;;;;;;22.50;53.70;;;;;;1558001;75;1645;-61
2023/10/15 01:34:45;;;;;;;;;;;22.40;53.60;;;;;;1545249;75;1674;-61
2023/10/15 01:36:51;;;;;;;;;;;22.50;53.70;;;;;;1547108;75;685;-61
2023/10/15 01:38:58;;;;;;;;;;;22.40;53.60;;;;;;1557820;75;1903;-61
2023/10/15 01:40:58;;;;;;;;;;;22.50;53.70;;;;;;1560334;75;1450;-60
2023/10/15 01:43:06;;;;;;;;;;;22.50;53.70;;;;;;1548156;75;1204;-61
2023/10/15 01:45:16;;;;;;;;;;;22.40;53.60;;;;;;1549990;75;1602;-61
2023/10/15 01:47:18;;;;;;;;;;;22.50;53.60;;;;;;1554515;75;1878;-61
2023/10/15 01:49:31;;;;;;;;;;;22.50;53.70;;;;;;1550800;75;686;-61
2023/10/15 01:51:23;;;;;;;;;;;22.40;53.60;;;;;;1553672;75;1439;-61
2023/10/15 01:53:25;;;;;;;;;;;22.40;53.60;;;;;;1548164;75;666;-59
2023/10/15 01:55:29;;;;;;;;;;;22.40;53.50;;;;;;1538244;76;669;-61
2023/10/15 01:57:31;;;;;;;;;;;22.40;53.60;;;;;;1550592;75;1508;-61
2023/10/15 01:59:49;;;;;;;;;;;22.40;53.50;;;;;;1537411;75;1908;-61
2023/10/15 02:01:50;;;;;;;;;;;22.40;53.50;;;;;;1556682;75;1119;-61
2023/10/15 02:03:52;;;;;;;;;;;22.40;53.50;;;;;;1549722;75;788;-61
2023/10/15 02:05:54;;;;;;;;;;;22.40;53.50;;;;;;1546459;75;726;-61
2023/10/15 02:07:56;;;;;;;;;;;22.40;53.50;;;;;;1554229;75;792;-61
2023/10/15 02:09:58;;;;;;;;;;;22.40;53.60;;;;;;1557064;75;767;-61
2023/10/15 02:12:00;;;;;;;;;;;22.40;53.60;;;;;;1548130;75;1698;-61
2023/10/15 02:14:07;;;;;;;;;;;22.40;53.60;;;;;;1547207;75;715;-61
2023/10/15 02:16:08;;;;;;;;;;;22.40;53.60;;;;;;1551346;75;1628;-61
2023/10/15 02:18:19;;;;;;;;;;;22.40;53.50;;;;;;1559602;75;1684;-61
2023/10/15 02:20:13;;;;;;;;;;;22.40;53.50;;;;;;1541668;75;1925;-61
2023/10/15 02:22:15;;;;;;;;;;;22.40;53.50;;;;;;1547372;75;660;-61
2023/10/15 02:24:17;;;;;;;;;;;22.40;53.50;;;;;;1552321;75;894;-62
2023/10/15 02:26:23;;;;;;;;;;;22.40;53.50;;;;;;1552203;75;1484;-61
2023/10/15 02:28:26;;;;;;;;;;;22.40;53.50;;;;;;1552669;75;1643;-61
2023/10/15 02:30:32;;;;;;;;;;;22.40;53.40;;;;;;1559263;75;1154;-61
2023/10/15 02:32:33;;;;;;;;;;;22.40;53.40;;;;;;1545886;75;1573;-61
2023/10/15 02:34:40;;;;;;;;;;;22.40;53.40;;;;;;1553777;75;798;-59
2023/10/15 02:36:42;;;;;;;;;;;22.40;53.50;;;;;;1560472;75;1513;-61
2023/10/15 02:38:53;;;;;;;;;;;22.40;53.40;;;;;;1538070;75;680;-61
2023/10/15 02:41:05;;;;;;;;;;;22.40;53.40;;;;;;1552774;75;1672;-61
2023/10/15 02:43:07;;;;;;;;;;;22.40;53.50;;;;;;1549836;75;864;-61
2023/10/15 02:45:14;;;;;;;;;;;22.40;53.50;;;;;;1550298;75;753;-61
2023/10/15 02:49:49;;;;;;;;;;;22.40;53.40;;;;;;1548746;75;1616;-61
2023/10/15 02:51:36;;;;;;;;;;;22.40;53.50;;;;;;1546385;75;1522;-61
2023/10/15 02:53:40;;;;;;;;;;;22.40;53.50;;;;;;1547065;75;1516;-61
2023/10/15 02:55:47;;;;;;;;;;;22.40;53.50;;;;;;1548879;75;831;-61
2023/10/15 02:57:51;;;;;;;;;;;22.40;53.50;;;;;;1541608;75;1649;-62
2023/10/15 02:59:52;;;;;;;;;;;22.40;53.50;;;;;;1543547;75;1944;-61
2023/10/15 03:01:56;;;;;;;;;;;22.40;53.50;;;;;;1551707;75;1169;-61
2023/10/15 03:04:07;;;;;;;;;;;22.40;53.50;;;;;;1559564;75;1648;-62
2023/10/15 03:06:02;;;;;;;;;;;22.40;53.50;;;;;;1545412;75;1592;-61
2023/10/15 03:08:04;;;;;;;;;;;22.40;53.50;;;;;;1547454;75;1504;-62
2023/10/15 03:10:06;;;;;;;;;;;22.40;53.50;;;;;;1556130;75;686;-61
2023/10/15 03:12:08;;;;;;;;;;;22.40;53.40;;;;;;1555717;75;1175;-62
2023/10/15 03:14:12;;;;;;;;;;;22.40;53.50;;;;;;1549808;75;693;-62
2023/10/15 03:16:14;;;;;;;;;;;22.30;53.50;;;;;;1552079;75;1954;-62
2023/10/15 03:18:21;;;;;;;;;;;22.40;53.50;;;;;;1552110;75;765;-61
2023/10/15 03:22:24;;;;;;;;;;;22.40;53.40;;;;;;1544777;75;1565;-62
2023/10/15 03:24:29;;;;;;;;;;;22.40;53.40;;;;;;1546666;75;1772;-61
2023/10/15 03:26:34;;;;;;;;;;;22.40;53.40;;;;;;1551218;75;1496;-62
2023/10/15 03:28:44;;;;;;;;;;;22.40;53.40;;;;;;1560164;75;805;-61
2023/10/15 03:30:44;;;;;;;;;;;22.40;53.40;;;;;;1543267;75;1695;-61
2023/10/15 03:32:45;;;;;;;;;;;22.30;53.40;;;;;;1553706;75;1611;-62
2023/10/15 03:34:59;;;;;;;;;;;22.40;53.50;;;;;;1554855;75;901;-62
2023/10/15 03:36:59;;;;;;;;;;;22.40;53.40;;;;;;1542106;75;1703;-62
2023/10/15 03:39:09;;;;;;;;;;;22.40;53.40;;;;;;1549327;75;691;-62
2023/10/15 03:41:22;;;;;;;;;;;22.40;53.50;;;;;;1552498;75;1943;-61
2023/10/15 03:43:16;;;;;;;;;;;22.40;53.40;;;;;;1546397;75;1341;-62
2023/10/15 03:45:26;;;;;;;;;;;22.40;53.40;;;;;;1557632;75;761;-62
2023/10/15 03:47:24;;;;;;;;;;;22.40;53.40;;;;;;1555554;75;1641;-61
2023/10/15 03:49:27;;;;;;;;;;;22.40;53.40;;;;;;1548967;75;1510;-62
2023/10/15 03:51:29;;;;;;;;;;;22.40;53.40;;;;;;1544116;75;1105;-61
2023/10/15 03:53:34;;;;;;;;;;;22.40;53.40;;;;;;1561209;75;683;-61
2023/10/15 03:55:34;;;;;;;;;;;22.40;53.40;;;;;;1550714;75;2037;-62
2023/10/15 03:57:40;;;;;;;;;;;22.40;53.30;;;;;;1544885;75;712;-62
2023/10/15 03:59:45;;;;;;;;;;;22.40;53.30;;;;;;1553104;75;1925;-62
2023/10/15 04:01:49;;;;;;;;;;;22.40;53.30;;;;;;1549355;75;1725;-61
2023/10/15 04:03:51;;;;;;;;;;;22.40;53.30;;;;;;1544869;75;1392;-61
2023/10/15 04:06:06;;;;;;;;;;;22.40;53.30;;;;;;1540713;75;682;-62
2023/10/15 04:08:17;;;;;;;;;;;22.40;53.30;;;;;;1555363;75;969;-61
2023/10/15 04:10:12;;;;;;;;;;;22.40;53.30;;;;;;1554520;75;1528;-61
2023/10/15 04:12:12;;;;;;;;;;;22.40;53.30;;;;;;1555163;75;1689;-61
2023/10/15 04:16:23;;;;;;;;;;;22.40;53.20;;;;;;1553423;75;856;-62
2023/10/15 04:18:26;;;;;;;;;;;22.40;53.20;;;;;;1552102;75;1614;-62
2023/10/15 04:20:41;;;;;;;;;;;22.40;53.30;;;;;;1554150;75;1918;-61
2023/10/15 04:22:35;;;;;;;;;;;22.40;53.20;;;;;;1554539;75;1667;-62
2023/10/15 04:24:37;;;;;;;;;;;22.40;53.30;;;;;;1538733;76;1683;-62
2023/10/15 04:26:42;;;;;;;;;;;22.40;53.30;;;;;;1557811;75;761;-62
2023/10/15 04:28:44;;;;;;;;;;;22.40;53.30;;;;;;1547291;75;678;-61
2023/10/15 04:30:46;;;;;;;;;;;22.40;53.20;;;;;;1556651;75;1073;-61
2023/10/15 04:32:48;;;;;;;;;;;22.40;53.30;;;;;;1551519;75;1555;-62
2023/10/15 04:34:51;;;;;;;;;;;22.40;53.20;;;;;;1554300;75;786;-61
2023/10/15 04:36:54;;;;;;;;;;;22.30;53.30;;;;;;1549548;75;724;-62
2023/10/15 04:39:11;;;;;;;;;;;22.40;53.20;;;;;;1558409;75;646;-62
2023/10/15 04:41:00;;;;;;;;;;;22.40;53.30;;;;;;1551095;75;1921;-61
2023/10/15 04:43:02;;;;;;;;;;;22.30;53.20;;;;;;1551263;75;984;-61
2023/10/15 04:45:20;;;;;;;;;;;22.30;53.20;;;;;;1555248;75;607;-62
2023/10/15 04:47:09;;;;;;;;;;;22.30;53.20;;;;;;1552883;75;1651;-62
2023/10/15 04:49:15;;;;;;;;;;;22.40;53.20;;;;;;1558315;75;825;-62
2023/10/15 04:51:14;;;;;;;;;;;22.40;53.30;;;;;;1555904;75;1705;-61
2023/10/15 04:53:27;;;;;;;;;;;22.30;53.20;;;;;;1556526;75;787;-62
2023/10/15 04:55:20;;;;;;;;;;;22.40;53.20;;;;;;1538132;75;1409;-61
2023/10/15 04:57:23;;;;;;;;;;;22.40;53.20;;;;;;1549388;75;736;-62
2023/10/15 04:59:25;;;;;;;;;;;22.30;53.20;;;;;;1546650;75;676;-62
2023/10/15 05:01:27;;;;;;;;;;;22.30;53.30;;;;;;1551180;75;1955;-62
2023/10/15 05:03:30;;;;;;;;;;;22.30;53.20;;;;;;1557090;75;748;-62
2023/10/15 05:05:32;;;;;;;;;;;22.30;53.30;;;;;;1549538;75;750;-62
2023/10/15 05:07:36;;;;;;;;;;;22.40;53.30;;;;;;1549856;75;768;-61
2023/10/15 05:09:40;;;;;;;;;;;22.30;53.30;;;;;;1556825;75;1615;-61
2023/10/15 05:11:42;;;;;;;;;;;22.30;53.20;;;;;;1550570;75;1522;-62
2023/10/15 05:13:44;;;;;;;;;;;22.30;53.30;;;;;;1541166;75;1357;-62
2023/10/15 05:15:47;;;;;;;;;;;22.30;53.20;;;;;;1539076;75;738;-61
2023/10/15 05:17:48;;;;;;;;;;;22.30;53.20;;;;;;1558635;75;692;-62
2023/10/15 05:19:53;;;;;;;;;;;22.30;53.20;;;;;;1551578;75;1915;-61
2023/10/15 05:21:56;;;;;;;;;;;22.30;53.20;;;;;;1545606;75;1108;-62
2023/10/15 05:23:58;;;;;;;;;;;22.40;53.20;;;;;;1547125;75;635;-62
2023/10/15 05:26:00;;;;;;;;;;;22.30;53.20;;;;;;1553202;75;694;-60
2023/10/15 05:28:01;;;;;;;;;;;22.30;53.10;;;;;;1556818;75;1513;-62
2023/10/15 05:30:09;;;;;;;;;;;22.30;53.20;;;;;;1554168;75;715;-62
2023/10/15 05:32:07;;;;;;;;;;;22.30;53.20;;;;;;1547882;75;1730;-62
2023/10/15 05:34:09;;;;;;;;;;;22.30;53.10;;;;;;1552861;75;669;-62
2023/10/15 05:36:11;;;;;;;;;;;22.30;53.10;;;;;;1544644;75;782;-61
2023/10/15 05:38:13;;;;;;;;;;;22.30;53.20;;;;;;1555920;75;659;-62
2023/10/15 05:40:21;;;;;;;;;;;22.30;53.10;;;;;;1552671;75;1930;-61
2023/10/15 05:42:22;;;;;;;;;;;22.30;53.10;;;;;;1543525;75;1557;-62
2023/10/15 05:44:23;;;;;;;;;;;22.30;53.10;;;;;;1545915;75;768;-62
2023/10/15 05:46:27;;;;;;;;;;;22.30;53.10;;;;;;1558191;75;790;-62
2023/10/15 05:48:29;;;;;;;;;;;22.30;53.10;;;;;;1552892;75;785;-62
2023/10/15 05:50:31;;;;;;;;;;;22.40;53.10;;;;;;1541140;75;1116;-62
2023/10/15 05:52:33;;;;;;;;;;;22.40;53.10;;;;;;1541427;75;695;-61
2023/10/15 05:54:35;;;;;;;;;;;22.40;53.10;;;;;;1552233;75;704;-62
2023/10/15 05:56:36;;;;;;;;;;;22.30;53.10;;;;;;1553950;75;1526;-62
2023/10/15 05:58:38;;;;;;;;;;;22.30;53.10;;;;;;1554771;75;712;-62
2023/10/15 06:00:40;;;;;;;;;;;22.30;53.10;;;;;;1551257;75;1947;-62
2023/10/15 06:02:42;;;;;;;;;;;22.30;53.10;;;;;;1549288;75;720;-62
2023/10/15 06:04:44;;;;;;;;;;;22.30;53.10;;;;;;1533951;75;709;-62
2023/10/15 06:06:46;;;;;;;;;;;22.30;53.10;;;;;;1548764;75;713;-62
2023/10/15 06:08:49;;;;;;;;;;;22.40;53.10;;;;;;1555504;75;671;-62
2023/10/15 06:10:51;;;;;;;;;;;22.30;53.10;;;;;;1545197;75;1594;-62
2023/10/15 06:12:53;;;;;;;;;;;22.30;53.10;;;;;;1552170;75;677;-61
2023/10/15 06:14:55;;;;;;;;;;;22.30;53.10;;;;;;1552163;75;662;-62
2023/10/15 06:16:57;;;;;;;;;;;22.30;53.10;;;;;;1544849;75;794;-61
2023/10/15 06:18:58;;;;;;;;;;;22.30;53.10;;;;;;1541959;75;735;-61
2023/10/15 06:21:00;;;;;;;;;;;22.30;53.10;;;;;;1552387;75;2074;-62
2023/10/15 06:23:07;;;;;;;;;;;22.30;53.10;;;;;;1546365;75;729;-62
2023/10/15 06:25:09;;;;;;;;;;;22.30;53.00;;;;;;1544981;75;1665;-62
2023/10/15 06:27:11;;;;;;;;;;;22.20;52.90;;;;;;1543462;75;804;-60
2023/10/15 06:29:13;;;;;;;;;;;22.30;53.00;;;;;;1552488;75;758;-62
2023/10/15 06:31:15;;;;;;;;;;;22.30;53.00;;;;;;1515096;77;1146;-62
2023/10/15 06:33:18;;;;;;;;;;;22.30;53.10;;;;;;1554715;75;746;-62
2023/10/15 06:35:20;;;;;;;;;;;22.20;52.90;;;;;;1554571;75;785;-62
2023/10/15 06:37:22;;;;;;;;;;;22.30;53.00;;;;;;1552107;75;706;-62
2023/10/15 06:39:24;;;;;;;;;;;22.30;53.00;;;;;;1543087;75;1518;-61
2023/10/15 06:41:27;;;;;;;;;;;22.30;53.00;;;;;;1539533;76;1943;-62
2023/10/15 06:43:29;;;;;;;;;;;22.30;53.00;;;;;;1538853;75;650;-61
2023/10/15 06:45:35;;;;;;;;;;;22.30;53.00;;;;;;1559019;75;795;-61
2023/10/15 06:47:35;;;;;;;;;;;22.30;52.90;;;;;;1552524;75;1200;-60
2023/10/15 06:49:37;;;;;;;;;;;22.30;52.90;;;;;;1559045;75;712;-60
2023/10/15 06:51:39;;;;;;;;;;;22.30;52.90;;;;;;1549286;75;1152;-60
2023/10/15 06:53:41;;;;;;;;;;;22.30;52.90;;;;;;1557154;75;1497;-60
2023/10/15 06:55:45;;;;;;;;;;;22.30;52.90;;;;;;1541525;75;827;-59
2023/10/15 06:57:46;;;;;;;;;;;22.30;52.90;;;;;;1557014;75;1702;-59
2023/10/15 06:59:52;;;;;;;;;;;22.30;52.90;;;;;;1543052;75;750;-59
2023/10/15 07:01:52;;;;;;;;;;;22.30;52.90;;;;;;1549941;75;1946;-60
2023/10/15 07:03:56;;;;;;;;;;;22.30;53.00;;;;;;1534908;76;742;-59
2023/10/15 07:05:57;;;;;;;;;;;22.30;53.00;;;;;;1554809;75;1646;-59
2023/10/15 07:08:00;;;;;;;;;;;22.30;52.90;;;;;;1553563;75;1582;-59
2023/10/15 07:10:08;;;;;;;;;;;22.30;52.90;;;;;;1549744;75;695;-60
2023/10/15 07:12:07;;;;;;;;;;;22.30;52.90;;;;;;1552720;75;1575;-60
2023/10/15 07:14:10;;;;;;;;;;;22.30;53.00;;;;;;1551489;75;785;-60
2023/10/15 07:16:12;;;;;;;;;;;22.30;52.90;;;;;;1551109;75;809;-59
2023/10/15 07:18:14;;;;;;;;;;;22.20;52.80;;;;;;1553492;75;695;-61
2023/10/15 07:20:21;;;;;;;;;;;22.30;52.90;;;;;;1552869;75;1219;-61
2023/10/15 07:22:20;;;;;;;;;;;22.30;52.90;;;;;;1550772;75;1929;-61
2023/10/15 07:24:23;;;;;;;;;;;22.30;52.90;;;;;;1544111;75;673;-61
2023/10/15 07:26:25;;;;;;;;;;;22.20;52.80;;;;;;1556982;75;735;-61
2023/10/15 07:28:27;;;;;;;;;;;22.30;52.90;;;;;;1559979;75;731;-61
2023/10/15 07:30:30;;;;;;;;;;;22.20;52.70;;;;;;1543025;75;1146;-61
2023/10/15 07:32:33;;;;;;;;;;;22.20;52.80;;;;;;1546378;75;746;-61
2023/10/15 07:34:35;;;;;;;;;;;22.20;52.80;;;;;;1549789;75;1517;-61
2023/10/15 07:36:37;;;;;;;;;;;22.30;52.80;;;;;;1540442;75;781;-61
2023/10/15 07:38:39;;;;;;;;;;;22.30;52.90;;;;;;1555577;75;710;-61
2023/10/15 07:40:41;;;;;;;;;;;22.20;52.70;;;;;;1554389;75;1939;-61
2023/10/15 07:42:43;;;;;;;;;;;22.20;52.70;;;;;;1550607;75;674;-61
2023/10/15 07:44:45;;;;;;;;;;;22.30;52.90;;;;;;1551071;75;749;-60
2023/10/15 07:46:52;;;;;;;;;;;22.30;52.80;;;;;;1550048;75;656;-61
2023/10/15 07:48:52;;;;;;;;;;;22.20;52.70;;;;;;1559128;75;1466;-60
2023/10/15 07:50:54;;;;;;;;;;;22.30;52.80;;;;;;1560416;75;1162;-62
2023/10/15 07:52:56;;;;;;;;;;;22.20;52.70;;;;;;1555687;75;688;-61
2023/10/15 07:54:59;;;;;;;;;;;22.20;52.70;;;;;;1557203;75;757;-61
2023/10/15 07:57:01;;;;;;;;;;;22.30;52.80;;;;;;1551302;75;787;-60
2023/10/15 07:59:04;;;;;;;;;;;22.30;52.80;;;;;;1552074;75;674;-60
2023/10/15 08:01:06;;;;;;;;;;;22.30;52.80;;;;;;1552235;75;1930;-61
2023/10/15 08:03:08;;;;;;;;;;;22.20;52.70;;;;;;1540768;75;1302;-61
2023/10/15 08:05:10;;;;;;;;;;;22.30;52.80;;;;;;1550828;75;770;-61
2023/10/15 08:07:12;;;;;;;;;;;22.30;52.80;;;;;;1546345;75;730;-61
2023/10/15 08:09:14;;;;;;;;;;;22.30;52.80;;;;;;1551202;75;804;-62
2023/10/15 08:11:16;;;;;;;;;;;22.30;52.70;;;;;;1547923;75;1157;-61
2023/10/15 08:13:18;;;;;;;;;;;22.30;52.70;;;;;;1551211;75;758;-61
2023/10/15 08:15:20;;;;;;;;;;;22.30;52.70;;;;;;1551443;75;761;-62
2023/10/15 08:17:23;;;;;;;;;;;22.30;52.70;;;;;;1556566;75;1589;-62
2023/10/15 08:19:25;;;;;;;;;;;22.20;52.60;;;;;;1547611;75;734;-62
2023/10/15 08:21:27;;;;;;;;;;;22.30;52.70;;;;;;1549077;75;1923;-61
2023/10/15 08:23:29;;;;;;;;;;;22.20;52.60;;;;;;1546995;75;737;-61
2023/10/15 08:25:31;;;;;;;;;;;22.20;52.60;;;;;;1546681;75;728;-59
2023/10/15 08:27:36;;;;;;;;;;;22.20;52.60;;;;;;1556883;75;706;-61
2023/10/15 08:29:37;;;;;;;;;;;22.30;52.60;;;;;;1553316;75;1656;-61
2023/10/15 08:31:39;;;;;;;;;;;22.30;52.60;;;;;;1547799;75;1584;-61
2023/10/15 08:33:40;;;;;;;;;;;22.20;52.60;;;;;;1556963;75;646;-61
2023/10/15 08:35:42;;;;;;;;;;;22.20;52.50;;;;;;1544031;75;869;-59
2023/10/15 08:37:44;;;;;;;;;;;22.30;52.60;;;;;;1553451;75;780;-61
2023/10/15 08:39:46;;;;;;;;;;;22.30;52.60;;;;;;1557593;75;633;-61
2023/10/15 08:41:48;;;;;;;;;;;22.20;52.40;;;;;;1544930;75;1954;-61
2023/10/15 08:43:50;;;;;;;;;;;22.20;52.30;;;;;;1546441;75;807;-61
2023/10/15 08:45:52;;;;;;;;;;;22.20;52.30;;;;;;1554145;75;1535;-61
2023/10/15 08:47:54;;;;;;;;;;;22.30;52.50;;;;;;1553578;75;665;-61
2023/10/15 08:49:59;;;;;;;;;;;22.20;52.30;;;;;;1554843;75;846;-59
2023/10/15 08:52:00;;;;;;;;;;;22.20;52.20;;;;;;1540567;75;1492;-61
2023/10/15 08:54:06;;;;;;;;;;;22.20;52.30;;;;;;1554957;75;680;-61
2023/10/15 08:56:05;;;;;;;;;;;22.20;52.20;;;;;;1550735;75;1170;-61
2023/10/15 08:58:09;;;;;;;;;;;22.20;52.20;;;;;;1551438;75;771;-61
2023/10/15 09:00:25;;;;;;;;;;;22.20;52.20;;;;;;1551507;75;1635;-61
2023/10/15 09:02:15;;;;;;;;;;;22.20;52.20;;;;;;1549549;75;1920;-61
2023/10/15 09:04:17;;;;;;;;;;;22.20;52.20;;;;;;1557233;75;747;-61
2023/10/15 09:06:24;;;;;;;;;;;22.20;52.20;;;;;;1556712;75;752;-61
2023/10/15 09:08:23;;;;;;;;;;;22.20;52.10;;;;;;1557574;75;1220;-61
2023/10/15 09:10:25;;;;;;;;;;;22.20;52.10;;;;;;1545737;75;1184;-61
2023/10/15 09:12:27;;;;;;;;;;;22.20;52.20;;;;;;1555480;75;717;-61
2023/10/15 09:14:38;;;;;;;;;;;22.20;52.10;;;;;;1551656;75;1583;-61
2023/10/15 09:16:50;;;;;;;;;;;22.20;52.10;;;;;;1546739;75;717;-61
2023/10/15 09:18:49;;;;;;;;;;;22.20;52.10;;;;;;1544901;75;1283;-59
2023/10/15 09:20:51;;;;;;;;;;;22.20;52.10;;;;;;1525500;77;1521;-61
2023/10/15 09:23:00;;;;;;;;;;;22.20;52.10;;;;;;1553589;75;1932;-59
2023/10/15 09:24:59;;;;;;;;;;;22.20;52.10;;;;;;1555422;75;1220;-60
2023/10/15 09:27:01;;;;;;;;;;;22.20;52.10;;;;;;1557267;75;1568;-59
2023/10/15 09:29:07;;;;;;;;;;;22.20;52.10;;;;;;1542148;75;818;-60
2023/10/15 09:31:10;;;;;;;;;;;22.20;52.10;;;;;;1555031;75;1598;-60
2023/10/15 09:33:17;;;;;;;;;;;22.20;52.10;;;;;;1560281;75;773;-60
2023/10/15 09:35:19;;;;;;;;;;;22.10;52.10;;;;;;1547391;75;1658;-60
2023/10/15 09:37:21;;;;;;;;;;;22.20;52.00;;;;;;1556369;75;784;-60
2023/10/15 09:39:26;;;;;;;;;;;22.20;52.10;;;;;;1554290;75;720;-59
2023/10/15 09:41:28;;;;;;;;;;;22.30;52.10;;;;;;1552520;75;1948;-60
2023/10/15 09:43:36;;;;;;;;;;;22.10;52.00;;;;;;1549265;75;691;-60
2023/10/15 09:45:37;;;;;;;;;;;22.10;52.00;;;;;;1553245;75;1313;-59
2023/10/15 09:47:39;;;;;;;;;;;22.30;52.10;;;;;;1556756;75;727;-60
2023/10/15 09:49:41;;;;;;;;;;;22.10;51.90;;;;;;1546700;75;721;-58
2023/10/15 09:51:43;;;;;;;;;;;22.20;51.90;;;;;;1545481;75;1113;-59
2023/10/15 09:53:46;;;;;;;;;;;22.20;51.90;;;;;;1544778;75;670;-59
2023/10/15 09:55:49;;;;;;;;;;;22.20;51.90;;;;;;1548736;75;1332;-60
2023/10/15 09:57:55;;;;;;;;;;;22.20;51.90;;;;;;1556699;75;679;-60
2023/10/15 09:59:57;;;;;;;;;;;22.20;51.80;;;;;;1546986;75;708;-60
2023/10/15 10:02:05;;;;;;;;;;;22.20;51.90;;;;;;1547265;75;1932;-60
2023/10/15 10:04:14;;;;;;;;;;;22.20;51.80;;;;;;1556035;75;1722;-59
2023/10/15 10:06:22;;;;;;;;;;;22.20;51.90;;;;;;1557561;75;1427;-60
2023/10/15 10:08:31;;;;;;;;;;;22.10;51.90;;;;;;1551342;75;704;-59
2023/10/15 10:10:35;;;;;;;;;;;22.10;51.80;;;;;;1548805;75;1909;-59
2023/10/15 10:12:58;;;;;;;;;;;22.10;51.80;;;;;;1550372;75;2219;-59
2023/10/15 10:15:03;;;;;;;;;;;22.20;51.90;;;;;;1555404;75;1525;-59
2023/10/15 10:17:06;;;;;;;;;;;22.20;51.90;;;;;;1555068;75;690;-60
2023/10/15 10:19:08;;;;;;;;;;;22.10;52.00;;;;;;1555658;75;747;-60
2023/10/15 10:21:15;;;;;;;;;;;22.10;51.90;;;;;;1550648;75;1146;-60
2023/10/15 10:23:16;;;;;;;;;;;22.10;51.90;;;;;;1552942;75;1948;-61
2023/10/15 10:25:35;;;;;;;;;;;22.10;51.90;;;;;;1547147;75;944;-60
2023/10/15 10:27:43;;;;;;;;;;;22.10;51.90;;;;;;1552860;75;707;-60
2023/10/15 10:29:53;;;;;;;;;;;22.10;51.90;;;;;;1550218;75;782;-60
2023/10/15 10:31:55;;;;;;;;;;;22.10;51.90;;;;;;1547401;75;1433;-60
2023/10/15 10:34:01;;;;;;;;;;;22.10;51.90;;;;;;1552109;75;813;-60
2023/10/15 10:36:00;;;;;;;;;;;22.10;51.90;;;;;;1551170;75;1063;-59
2023/10/15 10:38:10;;;;;;;;;;;22.20;51.90;;;;;;1537901;76;1572;-60
2023/10/15 10:40:13;;;;;;;;;;;22.20;51.80;;;;;;1557073;75;1683;-60
2023/10/15 10:42:22;;;;;;;;;;;22.20;51.80;;;;;;1551830;75;1941;-60
2023/10/15 10:44:26;;;;;;;;;;;22.20;51.90;;;;;;1553810;75;706;-59
2023/10/15 10:46:29;;;;;;;;;;;22.20;51.90;;;;;;1550329;75;846;-60
2023/10/15 10:48:39;;;;;;;;;;;22.20;51.80;;;;;;1553689;75;724;-60
2023/10/15 10:50:48;;;;;;;;;;;22.10;51.80;;;;;;1558044;75;1151;-60
2023/10/15 10:52:49;;;;;;;;;;;22.10;51.80;;;;;;1553168;75;1513;-60
2023/10/15 10:54:51;;;;;;;;;;;22.20;51.80;;;;;;1529448;77;1189;-60
2023/10/15 10:56:55;;;;;;;;;;;22.10;51.80;;;;;;1555152;75;778;-61
2023/10/15 10:58:57;;;;;;;;;;;22.20;51.70;;;;;;1555054;75;750;-60
2023/10/15 11:00:59;;;;;;;;;;;22.20;51.80;;;;;;1549953;75;1158;-59
2023/10/15 11:03:02;;;;;;;;;;;22.20;51.80;;;;;;1551220;75;1919;-58
2023/10/15 11:05:06;;;;;;;;;;;22.10;51.80;;;;;;1553454;75;682;-60
2023/10/15 11:07:08;;;;;;;;;;;22.10;51.70;;;;;;1553663;75;1608;-58
2023/10/15 11:09:31;;;;;;;;;;;22.10;51.70;;;;;;1555898;75;767;-60
2023/10/15 11:11:13;;;;;;;;;;;22.20;51.70;;;;;;1536345;75;1447;-59
2023/10/15 11:13:15;;;;;;;;;;;22.20;51.70;;;;;;1546811;75;675;-60
2023/10/15 11:15:17;;;;;;;;;;;22.20;51.70;;;;;;1551068;75;759;-61
2023/10/15 11:17:19;;;;;;;;;;;22.10;51.70;;;;;;1546485;76;775;-59
2023/10/15 11:19:22;;;;;;;;;;;22.20;51.70;;;;;;1552111;75;745;-60
2023/10/15 11:21:24;;;;;;;;;;;22.10;51.70;;;;;;1546534;75;1151;-61
2023/10/15 11:23:26;;;;;;;;;;;22.10;51.70;;;;;;1544945;75;1964;-59
2023/10/15 11:25:28;;;;;;;;;;;22.20;51.70;;;;;;1553349;75;753;-60
2023/10/15 11:27:31;;;;;;;;;;;22.20;51.70;;;;;;1543904;75;697;-60
2023/10/15 11:29:33;;;;;;;;;;;22.20;51.70;;;;;;1558876;75;1033;-60
2023/10/15 11:31:35;;;;;;;;;;;22.20;51.70;;;;;;1547809;75;1139;-60
2023/10/15 11:33:39;;;;;;;;;;;22.20;51.70;;;;;;1549233;75;1351;-60
2023/10/15 11:35:43;;;;;;;;;;;22.20;51.70;;;;;;1554712;75;771;-59
2023/10/15 11:37:50;;;;;;;;;;;22.20;51.70;;;;;;1550320;75;1001;-59
2023/10/15 11:39:51;;;;;;;;;;;22.10;51.60;;;;;;1558476;75;1586;-60
2023/10/15 11:41:55;;;;;;;;;;;22.10;51.60;;;;;;1557780;75;1134;-58
2023/10/15 11:43:56;;;;;;;;;;;22.10;51.60;;;;;;1545922;75;2001;-60
2023/10/15 11:46:07;;;;;;;;;;;22.10;51.60;;;;;;1550451;75;687;-59
2023/10/15 11:48:03;;;;;;;;;;;22.10;51.60;;;;;;1551728;75;1672;-60
2023/10/15 11:50:08;;;;;;;;;;;22.20;51.50;;;;;;1552593;75;2041;-60
2023/10/15 11:52:14;;;;;;;;;;;22.20;51.60;;;;;;1550121;75;1166;-62
2023/10/15 11:54:16;;;;;;;;;;;22.10;51.60;;;;;;1555618;75;690;-61
2023/10/15 11:56:20;;;;;;;;;;;22.20;51.70;;;;;;1559923;75;873;-61
2023/10/15 11:58:27;;;;;;;;;;;22.20;51.60;;;;;;1561243;75;742;-61
2023/10/15 12:00:32;;;;;;;;;;;22.10;51.50;;;;;;1557285;75;1849;-62
2023/10/15 12:02:34;;;;;;;;;;;22.10;51.50;;;;;;1544744;75;1931;-61
2023/10/15 12:04:35;;;;;;;;;;;22.10;51.50;;;;;;1549864;75;792;-62
2023/10/15 12:06:38;;;;;;;;;;;22.10;51.50;;;;;;1563502;75;684;-61
2023/10/15 12:08:40;;;;;;;;;;;22.10;51.50;;;;;;1541425;75;943;-62
2023/10/15 12:10:46;;;;;;;;;;;22.10;51.60;;;;;;1539284;75;1091;-62
2023/10/15 12:12:46;;;;;;;;;;;22.10;51.60;;;;;;1544762;75;1597;-61
2023/10/15 12:14:48;;;;;;;;;;;22.10;51.60;;;;;;1555225;75;697;-62
2023/10/15 12:16:50;;;;;;;;;;;22.20;51.60;;;;;;1555122;75;1392;-62
2023/10/15 12:18:52;;;;;;;;;;;22.10;51.50;;;;;;1549634;75;665;-61